Time;durP1;ratioP1;P1;durP2;ratioP2;P2;SDS_P1;SDS_P2;PMS_P1;PMS_P2;Temp;Humidity;BMP_temperature;BMP_pressure;BME280_temperature;BME280_humidity;BME280_pressure;Samples;Min_cycle;Max_cycle;Signal;HPM_P1;HPM_P2
2023/04/13 00:04:25;;;;;;;36.60;19.00;;;;;;;3.96;80.30;98747.41;217878;1256;139705;-66
2023/04/13 00:09:29;;;;;;;22.80;15.90;;;;;;;3.99;80.41;98744.64;218857;1256;139935;-66
2023/04/13 00:14:34;;;;;;;24.70;16.20;;;;;;;4.04;80.61;98731.09;218036;1256;139468;-66
2023/04/13 00:19:40;;;;;;;36.10;18.70;;;;;;;4.08;80.66;98728.42;218328;1256;139440;-66
2023/04/13 00:24:44;;;;;;;28.00;16.70;;;;;;;4.12;80.77;98728.52;218641;1256;140636;-65
2023/04/13 00:29:47;;;;;;;23.40;17.30;;;;;;;4.14;80.81;98719.13;218916;1256;139574;-66
2023/04/13 00:34:50;;;;;;;36.00;19.80;;;;;;;4.13;80.79;98705.78;219749;1256;140375;-66
2023/04/13 00:39:54;;;;;;;27.00;16.80;;;;;;;4.13;80.87;98697.50;218026;1257;140479;-65
2023/04/13 00:44:58;;;;;;;36.10;20.50;;;;;;;4.17;81.21;98692.96;217848;1259;139864;-66
2023/04/13 00:50:05;;;;;;;31.50;18.80;;;;;;;4.22;81.50;98690.65;219614;1258;139463;-67
2023/04/13 00:55:09;;;;;;;31.80;19.30;;;;;;;4.24;81.21;98689.77;219988;1256;140788;-66
2023/04/13 01:00:13;;;;;;;28.50;18.70;;;;;;;4.29;81.36;98694.00;219057;1256;140337;-66
2023/04/13 01:05:18;;;;;;;24.80;15.90;;;;;;;4.32;81.17;98686.91;218921;1256;140956;-68
2023/04/13 01:10:27;;;;;;;23.10;17.40;;;;;;;4.32;81.28;98691.56;218781;1256;141092;-68
2023/04/13 01:15:36;;;;;;;27.90;16.60;;;;;;;4.33;81.34;98697.92;218601;1256;140379;-68
2023/04/13 01:20:45;;;;;;;29.80;15.30;;;;;;;4.32;81.14;98705.00;218252;1255;139400;-67
2023/04/13 01:26:07;;;;;;;21.20;14.60;;;;;;;4.31;81.41;98709.36;218367;1256;140734;-65
2023/04/13 01:31:14;;;;;;;26.90;16.00;;;;;;;4.29;81.68;98711.09;217975;1256;140234;-67
2023/04/13 01:36:18;;;;;;;26.70;16.40;;;;;;;4.27;81.63;98718.59;218501;1256;139669;-67
2023/04/13 01:41:22;;;;;;;23.70;16.40;;;;;;;4.25;81.64;98724.17;217966;1257;139904;-67
2023/04/13 01:46:33;;;;;;;23.80;13.30;;;;;;;4.22;82.00;98728.63;218054;1256;140451;-68
2023/04/13 01:51:38;;;;;;;33.70;19.00;;;;;;;4.17;81.85;98730.58;217958;1259;139921;-67
2023/04/13 01:56:43;;;;;;;70.40;29.80;;;;;;;4.11;81.78;98732.73;217871;1260;139812;-67
2023/04/13 02:01:46;;;;;;;80.70;33.00;;;;;;;4.07;81.95;98732.70;218008;1260;139569;-67
2023/04/13 02:06:50;;;;;;;90.40;40.10;;;;;;;4.01;81.98;98730.71;218151;1257;139516;-66
2023/04/13 02:11:54;;;;;;;52.80;26.40;;;;;;;3.95;82.01;98730.27;218884;1256;140606;-66
2023/04/13 02:16:57;;;;;;;48.90;25.30;;;;;;;3.93;82.05;98732.19;217794;1257;139785;-65
2023/04/13 02:22:01;;;;;;;43.90;23.40;;;;;;;3.90;82.03;98726.29;218858;1257;141083;-65
2023/04/13 02:27:04;;;;;;;46.70;22.80;;;;;;;3.86;82.15;98726.16;219783;1255;140687;-65
2023/04/13 02:32:08;;;;;;;26.40;15.20;;;;;;;3.84;82.18;98727.55;219726;1257;139747;-65
2023/04/13 02:37:12;;;;;;;30.40;18.70;;;;;;;3.76;82.01;98725.13;218583;1256;139990;-65
2023/04/13 02:42:15;;;;;;;22.30;13.10;;;;;;;3.68;82.18;98728.16;219671;1257;140363;-66
2023/04/13 02:47:18;;;;;;;24.20;17.00;;;;;;;3.65;82.24;98734.55;219368;1256;140422;-66
2023/04/13 02:52:20;;;;;;;84.30;34.30;;;;;;;3.64;82.40;98739.23;220144;1256;141460;-66
2023/04/13 02:57:24;;;;;;;34.70;16.70;;;;;;;3.64;82.53;98739.92;219420;1257;140422;-67
2023/04/13 03:02:29;;;;;;;48.10;21.60;;;;;;;3.61;82.68;98739.70;218128;1257;139810;-66
2023/04/13 03:07:34;;;;;;;96.40;32.70;;;;;;;3.55;82.80;98739.05;219231;1257;140746;-66
2023/04/13 03:12:38;;;;;;;51.90;22.80;;;;;;;3.51;82.72;98738.98;218211;1257;139441;-67
2023/04/13 03:17:42;;;;;;;31.30;18.00;;;;;;;3.48;82.95;98736.98;218310;1257;139975;-66
2023/04/13 03:22:45;;;;;;;26.00;17.50;;;;;;;3.44;82.79;98725.95;218486;1256;139757;-67
2023/04/13 03:27:49;;;;;;;36.80;19.60;;;;;;;3.36;83.27;98701.20;218182;1257;141203;-66
2023/04/13 03:32:52;;;;;;;55.80;25.90;;;;;;;3.32;83.48;98700.30;218351;1257;139671;-67
2023/04/13 03:37:55;;;;;;;32.40;17.90;;;;;;;3.41;83.83;98711.08;218151;1257;139979;-66
2023/04/13 03:42:59;;;;;;;28.60;16.10;;;;;;;3.47;84.05;98705.54;217678;1257;140056;-66
2023/04/13 03:48:02;;;;;;;22.40;14.20;;;;;;;3.52;83.89;98708.27;218096;1257;140350;-65
2023/04/13 03:53:05;;;;;;;31.90;17.30;;;;;;;3.56;83.97;98710.54;217882;1257;140525;-65
2023/04/13 03:58:10;;;;;;;28.00;16.70;;;;;;;3.61;84.15;98715.45;217803;1257;140372;-65
2023/04/13 04:03:16;;;;;;;27.60;16.80;;;;;;;3.68;84.08;98710.23;218175;1260;141550;-66
2023/04/13 04:08:21;;;;;;;122.10;43.30;;;;;;;3.74;84.25;98708.20;218313;1257;140936;-66
2023/04/13 04:13:24;;;;;;;116.20;37.50;;;;;;;3.80;84.21;98714.84;217568;1257;139690;-65
2023/04/13 04:18:30;;;;;;;152.40;48.70;;;;;;;3.87;84.37;98717.91;218994;1257;139806;-65
2023/04/13 04:23:36;;;;;;;52.30;22.40;;;;;;;3.99;84.43;98726.23;219004;1256;140037;-65
2023/04/13 04:28:39;;;;;;;40.20;19.00;;;;;;;4.13;84.42;98730.73;219560;1257;139735;-65
2023/04/13 04:33:43;;;;;;;47.30;24.60;;;;;;;4.26;84.28;98729.92;220343;1256;140218;-64
2023/04/13 04:38:46;;;;;;;142.40;49.10;;;;;;;4.48;84.06;98731.67;220221;1257;140030;-66
2023/04/13 04:43:49;;;;;;;31.40;19.80;;;;;;;4.74;84.01;98731.41;220269;1256;140104;-66
2023/04/13 04:48:53;;;;;;;29.20;19.70;;;;;;;5.04;83.77;98730.11;219253;1255;139647;-66
2023/04/13 04:54:00;;;;;;;25.90;18.30;;;;;;;5.37;83.44;98725.75;219113;1256;139583;-64
2023/04/13 04:59:04;;;;;;;24.90;16.50;;;;;;;5.67;83.05;98723.38;218362;1257;139591;-66
2023/04/13 05:04:07;;;;;;;27.70;18.40;;;;;;;5.95;83.05;98726.12;217616;1257;140243;-65
2023/04/13 05:09:11;;;;;;;24.90;15.80;;;;;;;6.21;82.49;98726.36;217612;1261;140615;-66
2023/04/13 05:14:14;;;;;;;31.30;16.10;;;;;;;6.41;82.08;98724.68;217246;1260;139871;-62
2023/04/13 05:19:18;;;;;;;45.80;22.50;;;;;;;6.59;81.89;98719.71;217502;1257;140043;-64
2023/04/13 05:24:21;;;;;;;28.80;16.60;;;;;;;6.77;82.03;98718.41;217813;1257;139909;-63
2023/04/13 05:29:25;;;;;;;44.60;19.20;;;;;;;6.96;81.34;98720.55;217801;1257;139908;-64
2023/04/13 05:34:29;;;;;;;23.00;14.40;;;;;;;7.21;81.41;98716.55;217699;1257;139469;-63
2023/04/13 05:39:32;;;;;;;26.80;16.30;;;;;;;7.47;80.73;98718.41;217737;1256;140242;-65
2023/04/13 05:44:36;;;;;;;20.20;11.40;;;;;;;7.76;80.48;98724.14;217516;1260;140084;-65
2023/04/13 05:49:40;;;;;;;23.60;13.60;;;;;;;8.02;79.69;98718.86;217676;1257;141355;-65
2023/04/13 05:54:42;;;;;;;18.70;13.20;;;;;;;8.19;79.42;98722.73;217496;1256;139959;-64
2023/04/13 05:59:44;;;;;;;14.70;11.00;;;;;;;8.38;78.87;98723.71;218321;1257;140720;-66
2023/04/13 06:04:47;;;;;;;18.90;13.20;;;;;;;8.43;78.02;98728.39;217580;1256;139806;-63
2023/04/13 06:09:52;;;;;;;20.10;14.30;;;;;;;8.30;77.40;98731.39;218477;1257;140176;-67
2023/04/13 06:14:55;;;;;;;20.60;15.30;;;;;;;8.21;77.40;98731.14;218373;1257;140110;-63
2023/04/13 06:19:58;;;;;;;22.90;13.90;;;;;;;8.15;77.60;98733.13;217811;1257;139799;-65
2023/04/13 06:25:03;;;;;;;17.00;11.10;;;;;;;8.25;77.67;98735.19;218670;1256;139945;-65
2023/04/13 06:30:07;;;;;;;18.20;12.70;;;;;;;8.45;77.81;98739.20;220353;1256;140037;-65
2023/04/13 06:35:10;;;;;;;21.90;14.70;;;;;;;8.60;77.34;98745.73;220359;1260;140724;-67
2023/04/13 06:40:15;;;;;;;21.90;13.30;;;;;;;8.80;77.04;98743.64;220007;1257;140546;-64
2023/04/13 06:45:19;;;;;;;25.90;13.90;;;;;;;9.40;76.32;98741.75;220361;1259;140872;-65
2023/04/13 06:50:22;;;;;;;26.70;14.80;;;;;;;10.06;75.67;98744.98;219061;1260;140858;-66
2023/04/13 06:55:24;;;;;;;18.00;13.00;;;;;;;10.47;74.52;98741.54;217583;1260;139836;-68
2023/04/13 07:00:28;;;;;;;21.50;14.20;;;;;;;10.78;73.97;98740.80;218279;1257;139598;-66
2023/04/13 07:05:34;;;;;;;24.10;14.70;;;;;;;11.07;73.62;98739.09;217505;1262;140619;-70
2023/04/13 07:10:43;;;;;;;16.90;13.10;;;;;;;11.11;72.84;98735.91;218591;1257;140012;-70
2023/04/13 07:15:47;;;;;;;20.80;13.70;;;;;;;11.43;72.26;98738.27;217630;1260;141087;-69
2023/04/13 07:20:50;;;;;;;22.30;12.90;;;;;;;12.11;71.47;98740.52;218687;1257;140508;-67
2023/04/13 07:25:53;;;;;;;18.40;11.80;;;;;;;12.88;71.19;98741.89;217676;1262;139648;-68
2023/04/13 07:30:57;;;;;;;19.20;13.00;;;;;;;13.48;71.17;98745.30;217760;1256;139073;-66
2023/04/13 07:36:01;;;;;;;19.20;12.30;;;;;;;14.17;70.70;98740.86;217718;1259;139535;-67
2023/04/13 07:41:04;;;;;;;17.80;12.50;;;;;;;14.72;70.21;98738.02;217322;1260;139728;-67
2023/04/13 07:46:11;;;;;;;19.30;13.70;;;;;;;15.25;68.89;98736.77;218312;1262;140175;-69
2023/04/13 07:51:19;;;;;;;18.50;11.50;;;;;;;15.77;68.39;98737.52;217833;1259;139187;-67
2023/04/13 07:56:22;;;;;;;14.40;10.60;;;;;;;15.99;66.33;98733.40;218261;1258;141240;-68
2023/04/13 08:01:26;;;;;;;15.80;11.80;;;;;;;16.12;65.64;98724.86;217952;1260;140936;-67
2023/04/13 08:06:33;;;;;;;18.50;10.30;;;;;;;16.04;64.50;98728.48;217403;1260;139153;-66
2023/04/13 08:11:38;;;;;;;15.40;11.70;;;;;;;16.12;64.60;98735.13;217827;1261;139104;-68
2023/04/13 08:16:42;;;;;;;16.10;12.40;;;;;;;16.55;64.61;98737.20;217504;1259;139449;-68
2023/04/13 08:21:45;;;;;;;17.00;12.00;;;;;;;16.80;63.61;98741.06;220173;1258;140808;-69
2023/04/13 08:26:48;;;;;;;13.50;10.90;;;;;;;16.95;62.18;98744.36;218067;1259;140161;-67
2023/04/13 08:31:52;;;;;;;11.70;9.30;;;;;;;16.99;61.71;98745.27;217168;1262;139131;-68
2023/04/13 08:36:56;;;;;;;12.90;10.60;;;;;;;17.16;61.43;98745.38;220248;1257;139677;-69
2023/04/13 08:42:00;;;;;;;13.40;10.70;;;;;;;17.17;60.24;98743.48;220173;1259;140968;-69
2023/04/13 08:47:03;;;;;;;11.30;8.80;;;;;;;17.22;59.95;98735.60;218595;1262;139580;-69
2023/04/13 08:52:09;;;;;;;13.70;9.80;;;;;;;17.11;58.83;98735.91;219372;1259;139902;-67
2023/04/13 08:57:15;;;;;;;11.00;8.50;;;;;;;16.73;58.02;98737.81;218602;1262;140483;-69
2023/04/13 09:02:27;;;;;;;9.90;7.90;;;;;;;16.69;58.61;98740.07;218600;1262;139800;-69
2023/04/13 09:07:35;;;;;;;9.00;7.30;;;;;;;16.83;57.26;98735.61;217554;1262;139507;-69
2023/04/13 09:12:40;;;;;;;9.60;6.90;;;;;;;16.90;56.94;98740.77;217464;1258;139182;-68
2023/04/13 09:17:45;;;;;;;11.40;6.80;;;;;;;17.18;56.77;98738.65;217216;1262;138468;-66
2023/04/13 09:22:49;;;;;;;7.70;6.70;;;;;;;17.19;55.50;98739.55;217900;1261;139788;-66
2023/04/13 09:27:55;;;;;;;6.30;4.20;;;;;;;17.34;55.12;98733.48;217234;1262;139535;-70
2023/04/13 09:33:07;;;;;;;4.20;3.60;;;;;;;17.46;54.58;98732.67;217340;1260;139928;-67
2023/04/13 09:38:14;;;;;;;8.90;4.70;;;;;;;17.82;53.57;98729.27;217237;1262;139463;-70
2023/04/13 09:43:21;;;;;;;7.40;4.50;;;;;;;18.28;53.45;98730.45;217208;1260;139586;-72
2023/04/13 09:48:24;;;;;;;5.90;4.80;;;;;;;18.46;52.70;98726.27;217199;1262;138954;-71
2023/04/13 09:53:38;;;;;;;4.60;3.90;;;;;;;18.65;52.50;98727.52;218140;1262;139656;-71
2023/04/13 09:58:43;;;;;;;7.80;4.60;;;;;;;18.50;51.30;98726.94;217171;1262;139729;-72
2023/04/13 10:03:47;;;;;;;7.20;4.50;;;;;;;18.17;50.68;98726.38;217179;1262;138908;-68
2023/04/13 10:08:50;;;;;;;4.90;4.40;;;;;;;18.29;50.68;98718.64;218236;1260;139742;-69
2023/04/13 10:13:58;;;;;;;6.60;6.00;;;;;;;18.54;50.68;98721.48;217219;1260;140563;-68
2023/04/13 10:19:14;;;;;;;5.20;4.40;;;;;;;18.41;49.41;98725.27;220066;1260;140503;-72
2023/04/13 10:24:19;;;;;;;9.60;5.10;;;;;;;18.40;48.86;98726.48;217578;1263;139284;-68
2023/04/13 10:29:31;;;;;;;7.70;6.20;;;;;;;18.39;49.19;98727.80;218581;1260;139053;-68
2023/04/13 10:34:38;;;;;;;5.10;4.60;;;;;;;18.56;48.66;98730.55;220178;1258;140633;-71
2023/04/13 10:39:42;;;;;;;8.30;5.90;;;;;;;18.77;47.97;98731.45;220036;1260;139528;-74
2023/04/13 10:44:50;;;;;;;5.60;5.00;;;;;;;19.01;48.42;98728.27;219455;1258;141314;-68
2023/04/13 10:49:53;;;;;;;4.90;4.00;;;;;;;19.03;47.63;98730.71;218433;1260;139731;-66
2023/04/13 10:54:57;;;;;;;4.50;4.00;;;;;;;18.49;45.79;98736.51;217707;1258;139353;-69
2023/04/13 10:59:59;;;;;;;6.60;4.80;;;;;;;18.12;46.75;98736.35;217580;1260;138892;-67
2023/04/13 11:05:03;;;;;;;3.90;3.50;;;;;;;18.06;47.19;98740.14;217416;1258;138930;-70
2023/04/13 11:10:08;;;;;;;9.10;4.70;;;;;;;18.14;47.02;98738.55;218879;1257;139789;-69
2023/04/13 11:15:18;;;;;;;4.70;4.30;;;;;;;18.26;46.36;98734.44;217307;1261;139787;-69
2023/04/13 11:20:36;;;;;;;7.80;4.60;;;;;;;18.42;45.95;98736.86;217542;1257;139138;-69
2023/04/13 11:25:51;;;;;;;4.30;3.20;;;;;;;18.57;45.90;98735.77;217139;1262;140293;-69
2023/04/13 11:30:55;;;;;;;6.40;5.50;;;;;;;18.78;45.02;98738.66;217116;1258;139405;-68
2023/04/13 11:36:00;;;;;;;5.50;4.40;;;;;;;18.90;44.81;98743.54;217038;1263;139109;-68
2023/04/13 11:41:05;;;;;;;4.10;3.60;;;;;;;18.86;45.04;98733.52;217911;1260;139973;-70
2023/04/13 11:46:26;;;;;;;5.00;3.80;;;;;;;18.62;43.70;98738.00;216976;1257;785815;-69
2023/04/13 11:51:31;;;;;;;5.50;3.60;;;;;;;18.57;43.40;98738.96;217890;1263;139251;-68
2023/04/13 11:56:35;;;;;;;4.40;3.00;;;;;;;18.49;42.93;98739.53;216997;1257;139146;-68
2023/04/13 12:01:39;;;;;;;5.70;3.70;;;;;;;18.37;42.47;98739.71;217251;1257;139071;-68
2023/04/13 12:06:53;;;;;;;4.70;3.20;;;;;;;17.92;42.53;98735.81;217429;1262;139938;-67
2023/04/13 12:11:57;;;;;;;3.60;3.20;;;;;;;17.62;42.54;98735.70;217125;1260;139491;-68
2023/04/13 12:17:28;;;;;;;6.40;3.50;;;;;;;17.44;43.35;98735.34;220071;1258;138608;-70
2023/04/13 12:22:45;;;;;;;6.30;3.60;;;;;;;17.43;43.24;98732.08;220253;1257;139541;-70
2023/04/13 12:27:52;;;;;;;5.30;3.30;;;;;;;17.59;44.10;98728.21;217752;1259;139858;-66
2023/04/13 12:32:56;;;;;;;3.60;2.80;;;;;;;17.59;43.97;98722.44;220065;1257;138852;-68
2023/04/13 12:38:00;;;;;;;3.60;3.20;;;;;;;17.61;44.01;98725.21;220057;1257;139186;-68
2023/04/13 12:43:04;;;;;;;3.60;3.30;;;;;;;17.66;43.37;98723.76;217517;1257;140166;-69
2023/04/13 12:48:10;;;;;;;3.90;3.20;;;;;;;17.63;43.39;98717.25;218248;1258;138660;-68
2023/04/13 12:53:16;;;;;;;5.80;3.00;;;;;;;17.61;43.56;98726.45;217266;1261;139547;-67
2023/04/13 12:58:19;;;;;;;3.70;3.00;;;;;;;17.58;43.07;98729.79;217460;1260;138708;-67
2023/04/13 13:03:22;;;;;;;3.90;3.60;;;;;;;17.56;42.72;98727.90;217226;1262;139456;-67
2023/04/13 13:08:26;;;;;;;3.80;3.20;;;;;;;17.59;43.17;98725.61;217051;1257;139437;-67
2023/04/13 13:13:29;;;;;;;4.20;3.40;;;;;;;17.65;43.62;98725.88;217135;1257;138758;-67
2023/04/13 13:18:32;;;;;;;5.70;3.80;;;;;;;17.82;43.67;98724.44;217221;1257;139555;-66
2023/04/13 13:23:53;;;;;;;5.40;3.20;;;;;;;18.06;43.58;98729.10;217298;1258;209154;-68
2023/04/13 13:28:58;;;;;;;6.00;3.80;;;;;;;18.30;43.34;98719.00;217810;1257;139375;-68
2023/04/13 13:34:02;;;;;;;3.90;3.60;;;;;;;18.31;42.55;98725.67;217646;1257;140925;-66
2023/04/13 13:39:04;;;;;;;3.70;3.20;;;;;;;18.27;41.91;98721.33;217210;1258;139780;-69
2023/04/13 13:44:08;;;;;;;3.70;3.40;;;;;;;17.92;41.61;98719.70;217383;1257;139696;-67
2023/04/13 13:49:12;;;;;;;8.10;4.40;;;;;;;17.54;42.08;98720.30;217301;1259;140158;-69
2023/04/13 13:54:14;;;;;;;3.70;3.40;;;;;;;17.48;42.71;98723.86;217291;1260;140122;-68
2023/04/13 13:59:24;;;;;;;4.40;3.80;;;;;;;17.34;42.74;98727.33;217131;1260;139201;-70
2023/04/13 14:04:29;;;;;;;7.60;4.10;;;;;;;17.17;42.63;98728.34;217498;1259;139920;-70
2023/04/13 14:09:33;;;;;;;3.90;3.50;;;;;;;17.20;43.46;98728.59;218610;1260;140654;-71
2023/04/13 14:14:37;;;;;;;3.60;3.30;;;;;;;17.30;43.22;98730.33;217647;1259;140030;-69
2023/04/13 14:19:40;;;;;;;4.40;3.50;;;;;;;17.20;42.90;98733.38;220170;1257;138618;-70
2023/04/13 14:24:45;;;;;;;4.30;3.40;;;;;;;17.22;43.22;98732.76;220210;1257;139052;-71
2023/04/13 14:29:49;;;;;;;5.10;3.30;;;;;;;17.37;42.87;98732.52;220222;1258;139765;-68
2023/04/13 14:34:52;;;;;;;3.50;3.10;;;;;;;17.18;42.28;98736.39;218709;1257;139242;-68
2023/04/13 14:39:54;;;;;;;3.80;3.40;;;;;;;17.14;42.18;98739.59;216894;1261;140853;-69
2023/04/13 14:44:56;;;;;;;3.80;2.90;;;;;;;17.06;42.09;98734.45;217173;1259;138755;-69
2023/04/13 14:49:59;;;;;;;4.60;3.30;;;;;;;16.97;42.08;98733.55;217565;1260;138825;-68
2023/04/13 14:55:03;;;;;;;3.70;3.00;;;;;;;16.92;42.13;98740.75;217403;1259;140557;-68
2023/04/13 15:00:20;;;;;;;6.60;4.20;;;;;;;16.84;42.57;98734.36;217907;1260;139311;-68
2023/04/13 15:05:24;;;;;;;9.70;5.00;;;;;;;16.67;43.15;98741.63;217217;1257;139794;-68
2023/04/13 15:10:27;;;;;;;6.70;4.80;;;;;;;16.46;43.77;98744.54;217153;1257;139044;-69
2023/04/13 15:15:31;;;;;;;6.60;4.60;;;;;;;16.23;44.96;98746.23;217173;1260;140272;-70
2023/04/13 15:20:34;;;;;;;10.10;3.90;;;;;;;16.11;45.84;98750.16;217271;1257;139567;-71
2023/04/13 15:25:37;;;;;;;8.10;5.10;;;;;;;15.96;46.46;98759.70;217692;1262;139226;-67
2023/04/13 15:30:42;;;;;;;6.70;4.80;;;;;;;15.85;46.84;98764.45;217515;1259;139389;-70
2023/04/13 15:35:45;;;;;;;7.60;4.60;;;;;;;15.74;46.92;98763.41;217730;1257;140917;-69
2023/04/13 15:40:48;;;;;;;9.20;5.60;;;;;;;15.64;47.02;98767.23;217450;1257;140507;-69
2023/04/13 15:45:55;;;;;;;9.90;5.70;;;;;;;15.52;47.27;98773.02;217326;1259;140710;-70
2023/04/13 15:50:59;;;;;;;9.00;4.70;;;;;;;15.37;47.76;98770.90;217432;1259;139945;-70
2023/04/13 15:56:07;;;;;;;9.20;4.20;;;;;;;15.25;47.97;98776.56;217278;1257;138938;-70
2023/04/13 16:01:11;;;;;;;5.20;4.70;;;;;;;15.13;48.22;98777.30;217114;1258;139699;-71
2023/04/13 16:06:15;;;;;;;13.60;6.30;;;;;;;15.01;48.34;98779.42;217106;1258;138981;-70
2023/04/13 16:11:19;;;;;;;6.70;4.90;;;;;;;14.94;48.79;98776.63;218588;1257;140712;-72
2023/04/13 16:16:25;;;;;;;6.40;4.40;;;;;;;14.83;48.99;98775.13;218450;1258;139322;-69
2023/04/13 16:21:29;;;;;;;6.00;5.30;;;;;;;14.73;49.10;98782.95;218178;1259;139565;-70
2023/04/13 16:26:32;;;;;;;8.20;5.80;;;;;;;14.65;49.25;98783.75;218040;1259;139909;-67
2023/04/13 16:31:35;;;;;;;7.50;5.10;;;;;;;14.56;49.28;98787.60;217168;1262;139900;-66
2023/04/13 16:36:39;;;;;;;9.00;5.10;;;;;;;14.47;49.25;98791.05;217327;1262;139938;-69
2023/04/13 16:41:43;;;;;;;10.70;6.00;;;;;;;14.35;49.30;98797.95;217077;1259;140922;-70
2023/04/13 16:46:46;;;;;;;5.70;4.80;;;;;;;14.24;49.19;98799.29;218164;1259;139770;-71
2023/04/13 16:51:51;;;;;;;3.90;3.40;;;;;;;14.13;49.18;98802.63;217660;1258;141383;-71
2023/04/13 16:56:55;;;;;;;6.70;3.60;;;;;;;14.03;49.42;98802.83;217220;1257;139176;-71
2023/04/13 17:02:00;;;;;;;4.90;4.40;;;;;;;13.94;49.61;98804.56;217662;1257;139460;-72
2023/04/13 17:07:08;;;;;;;6.80;4.70;;;;;;;13.86;49.55;98806.11;217379;1262;139841;-69
2023/04/13 17:12:14;;;;;;;6.40;4.40;;;;;;;13.76;49.68;98808.27;217718;1262;205091;-70
2023/04/13 17:17:17;;;;;;;16.50;5.90;;;;;;;13.69;50.11;98814.64;217628;1257;138900;-70
2023/04/13 17:22:21;;;;;;;7.30;4.90;;;;;;;13.62;50.10;98821.85;217538;1259;140960;-70
2023/04/13 17:27:25;;;;;;;10.30;5.70;;;;;;;13.55;50.38;98824.20;217653;1259;139575;-73
2023/04/13 17:32:30;;;;;;;8.30;5.10;;;;;;;13.45;50.72;98833.45;217627;1261;139300;-71
2023/04/13 17:37:33;;;;;;;13.10;6.10;;;;;;;13.36;50.56;98840.63;217241;1258;139741;-70
2023/04/13 17:42:37;;;;;;;6.00;4.20;;;;;;;13.29;50.77;98842.89;217360;1262;139950;-70
2023/04/13 17:47:41;;;;;;;5.60;5.00;;;;;;;13.23;50.79;98842.16;218086;1259;139351;-70
2023/04/13 17:52:46;;;;;;;7.00;4.10;;;;;;;13.17;51.05;98853.20;217653;1262;140001;-70
2023/04/13 17:57:49;;;;;;;6.30;3.70;;;;;;;13.11;51.19;98855.45;217906;1260;139365;-70
2023/04/13 18:02:54;;;;;;;9.20;4.50;;;;;;;13.06;51.40;98862.32;217510;1258;138895;-70
2023/04/13 18:08:00;;;;;;;7.50;5.20;;;;;;;13.01;51.64;98869.44;219829;1257;139703;-71
2023/04/13 18:13:04;;;;;;;5.00;4.10;;;;;;;12.98;51.88;98872.33;217636;1257;139977;-70
2023/04/13 18:18:07;;;;;;;6.00;4.70;;;;;;;12.94;51.92;98875.34;218059;1257;139241;-71
2023/04/13 18:23:10;;;;;;;10.20;5.70;;;;;;;12.88;52.32;98876.73;218659;1257;139145;-70
2023/04/13 18:28:14;;;;;;;8.80;7.20;;;;;;;12.87;52.88;98881.71;217580;1257;139611;-70
2023/04/13 18:33:19;;;;;;;9.20;7.60;;;;;;;12.84;53.10;98883.12;218157;1259;140031;-70
2023/04/13 18:38:23;;;;;;;11.30;7.60;;;;;;;12.79;53.47;98884.04;217504;1259;139245;-70
2023/04/13 18:43:26;;;;;;;10.10;7.90;;;;;;;12.76;53.64;98890.25;217650;1257;139924;-70
2023/04/13 18:48:31;;;;;;;14.10;8.10;;;;;;;12.69;53.93;98887.64;217586;1257;140677;-69
2023/04/13 18:53:33;;;;;;;11.90;7.50;;;;;;;12.64;54.30;98898.06;218224;1257;140112;-70
2023/04/13 18:58:36;;;;;;;14.70;8.60;;;;;;;12.59;54.32;98902.92;217428;1257;139473;-70
2023/04/13 19:03:41;;;;;;;10.40;7.90;;;;;;;12.52;54.52;98905.39;217735;1258;140383;-70
2023/04/13 19:08:46;;;;;;;8.40;7.40;;;;;;;12.45;55.06;98906.63;217493;1259;139185;-70
2023/04/13 19:13:50;;;;;;;13.20;9.00;;;;;;;12.40;54.91;98908.23;217439;1262;139478;-70
2023/04/13 19:18:53;;;;;;;12.20;8.00;;;;;;;12.36;55.08;98910.99;217450;1257;139454;-70
2023/04/13 19:23:57;;;;;;;10.70;8.60;;;;;;;12.32;55.46;98912.16;217587;1256;140147;-70
2023/04/13 19:29:02;;;;;;;8.10;7.10;;;;;;;12.27;55.56;98913.45;218393;1257;139198;-70
2023/04/13 19:34:09;;;;;;;15.80;8.30;;;;;;;12.23;56.17;98916.75;217697;1262;139472;-70
2023/04/13 19:39:13;;;;;;;;;;;;;;;12.19;56.92;98919.01;218636;1256;139097;-70
2023/04/13 19:44:16;;;;;;;15.60;9.00;;;;;;;12.11;58.21;98921.77;218272;1261;126431;-70
2023/04/13 19:49:21;;;;;;;11.10;8.00;;;;;;;12.06;58.88;98925.02;217358;1258;139796;-69
2023/04/13 19:54:26;;;;;;;14.90;10.60;;;;;;;11.99;59.62;98928.98;218653;1258;139372;-70
2023/04/13 19:59:31;;;;;;;20.40;11.70;;;;;;;11.90;60.34;98929.56;219067;1257;141039;-69
2023/04/13 20:04:35;;;;;;;22.00;12.70;;;;;;;11.84;60.76;98928.05;220256;1258;140758;-70
2023/04/13 20:09:38;;;;;;;18.30;12.00;;;;;;;11.76;61.45;98925.34;220111;1257;140940;-70
2023/04/13 20:14:41;;;;;;;13.30;9.20;;;;;;;11.70;62.01;98925.71;220092;1257;140659;-70
2023/04/13 20:19:45;;;;;;;15.80;10.40;;;;;;;11.57;62.94;98927.39;218533;1259;141650;-69
2023/04/13 20:24:48;;;;;;;12.30;8.00;;;;;;;11.42;63.45;98933.88;217759;1259;140368;-69
2023/04/13 20:29:55;;;;;;;15.80;10.00;;;;;;;11.25;64.07;98930.80;217206;1262;140814;-69
2023/04/13 20:34:58;;;;;;;9.50;7.80;;;;;;;11.12;64.25;98935.84;217694;1257;140197;-69
2023/04/13 20:40:05;;;;;;;15.30;11.60;;;;;;;11.02;64.71;98934.82;217480;1258;140502;-68
2023/04/13 20:45:11;;;;;;;18.10;13.10;;;;;;;10.97;65.13;98933.79;217325;1257;142120;-69
2023/04/13 20:50:22;;;;;;;22.90;11.10;;;;;;;10.93;65.68;98931.94;217408;1258;141368;-69
2023/04/13 20:55:29;;;;;;;18.40;12.90;;;;;;;10.80;66.45;98937.48;218371;1258;140701;-68
2023/04/13 21:00:34;;;;;;;27.00;14.70;;;;;;;10.71;66.74;98941.00;217675;1259;140929;-69
2023/04/13 21:05:38;;;;;;;55.20;24.90;;;;;;;10.64;66.88;98946.07;217313;1259;141428;-69
2023/04/13 21:10:42;;;;;;;43.20;21.10;;;;;;;10.60;67.43;98948.17;217335;1259;140280;-69
2023/04/13 21:15:46;;;;;;;28.20;20.10;;;;;;;10.62;67.86;98946.16;217692;1257;139687;-69
2023/04/13 21:20:49;;;;;;;28.60;17.80;;;;;;;10.62;67.98;98951.64;217340;1256;139724;-69
2023/04/13 21:25:53;;;;;;;36.60;19.60;;;;;;;10.62;68.23;98949.95;217299;1257;140093;-68
2023/04/13 21:30:56;;;;;;;62.60;30.60;;;;;;;10.58;68.16;98944.35;217594;1257;142533;-69
2023/04/13 21:35:59;;;;;;;43.80;23.20;;;;;;;10.56;68.69;98940.18;218044;1257;139856;-69
2023/04/13 21:41:26;;;;;;;30.00;17.80;;;;;;;10.55;68.79;98932.81;217468;1260;140836;-69
2023/04/13 21:46:29;;;;;;;30.30;17.40;;;;;;;10.55;69.00;98940.02;217402;1257;141099;-70
2023/04/13 21:51:32;;;;;;;29.30;19.30;;;;;;;10.55;69.19;98940.33;217317;1258;140940;-69
2023/04/13 21:56:36;;;;;;;29.90;18.30;;;;;;;10.53;69.16;98940.48;217237;1262;140525;-69
2023/04/13 22:01:38;;;;;;;27.70;19.10;;;;;;;10.52;69.19;98939.13;219310;1257;140824;-69
2023/04/13 22:06:42;;;;;;;27.90;19.00;;;;;;;10.51;69.19;98938.84;217583;1262;139946;-69
2023/04/13 22:11:45;;;;;;;27.70;18.50;;;;;;;10.46;69.47;98932.89;218350;1262;140510;-68
2023/04/13 22:16:47;;;;;;;27.10;16.70;;;;;;;10.45;69.81;98932.94;217431;1259;141066;-69
2023/04/13 22:21:51;;;;;;;30.10;17.50;;;;;;;10.42;69.82;98935.41;217613;1261;140283;-69
2023/04/13 22:26:54;;;;;;;24.90;17.00;;;;;;;10.41;70.02;98933.65;217518;1261;139879;-69
2023/04/13 22:31:58;;;;;;;28.50;17.10;;;;;;;10.39;70.00;98930.92;217361;1258;140854;-69
2023/04/13 22:37:03;;;;;;;26.10;17.50;;;;;;;10.35;70.04;98925.62;217454;1260;140216;-68
2023/04/13 22:42:07;;;;;;;19.80;14.20;;;;;;;10.27;70.28;98924.10;218089;1260;140109;-69
2023/04/13 22:47:13;;;;;;;30.10;18.50;;;;;;;10.13;70.65;98931.55;217337;1257;140804;-69
2023/04/13 22:52:17;;;;;;;24.40;17.00;;;;;;;10.08;71.20;98933.85;217476;1262;140335;-70
2023/04/13 22:57:22;;;;;;;26.20;17.50;;;;;;;10.05;71.53;98938.83;217577;1262;140841;-69
2023/04/13 23:02:26;;;;;;;26.50;17.20;;;;;;;10.04;71.66;98931.31;217643;1258;141065;-69
2023/04/13 23:07:33;;;;;;;28.70;16.70;;;;;;;10.01;72.04;98932.07;217235;1259;139715;-69
2023/04/13 23:12:35;;;;;;;20.60;15.40;;;;;;;9.95;71.92;98938.60;217555;1259;140235;-68